createdAt,value
2022-12-24T00:01:54.654Z,7.38
2022-12-24T00:05:01.403Z,7.72
2022-12-24T00:08:06.164Z,8.52
2022-12-24T00:11:10.784Z,9.35
2022-12-24T00:14:15.298Z,9.27
2022-12-24T00:17:19.713Z,9.32
2022-12-24T00:20:25.119Z,10.07
2022-12-24T00:23:30.246Z,7.88
2022-12-24T00:26:35.260Z,9.35
2022-12-24T00:29:39.911Z,11.18
2022-12-24T00:32:44.048Z,10.77
2022-12-24T00:35:52.366Z,11.07
2022-12-24T00:38:56.635Z,11.18
2022-12-24T00:42:01.023Z,13.38
2022-12-24T00:45:06.211Z,13.95
2022-12-24T00:48:10.835Z,14.15
2022-12-24T00:51:15.842Z,13.45
2022-12-24T00:54:20.671Z,12.88
2022-12-24T00:57:24.846Z,12.85
2022-12-24T01:00:29.209Z,14.50
2022-12-24T01:03:35.412Z,13.30
2022-12-24T01:06:39.999Z,13.77
2022-12-24T01:09:44.001Z,13.30
2022-12-24T01:12:48.308Z,14.43
2022-12-24T01:15:53.002Z,14.48
2022-12-24T01:18:57.451Z,15.15
2022-12-24T01:22:01.984Z,14.57
2022-12-24T01:25:06.785Z,14.90
2022-12-24T01:28:10.888Z,13.38
2022-12-24T01:31:18.882Z,16.08
2022-12-24T01:34:23.076Z,14.32
2022-12-24T01:37:27.547Z,14.70
2022-12-24T01:40:50.718Z,15.18
2022-12-24T01:43:55.466Z,15.80
2022-12-24T01:47:17.835Z,14.68
2022-12-24T01:50:22.099Z,16.27
2022-12-24T01:53:26.514Z,16.08
2022-12-24T01:56:32.439Z,15.98
2022-12-24T01:59:38.901Z,17.20
2022-12-24T02:02:47.938Z,14.55
2022-12-24T02:05:57.280Z,15.55
2022-12-24T02:09:02.013Z,15.85
2022-12-24T02:12:07.611Z,17.42
2022-12-24T02:15:15.675Z,16.00
2022-12-24T02:18:34.697Z,16.35
2022-12-24T02:22:11.474Z,17.35
2022-12-24T02:25:30.418Z,16.67
2022-12-24T02:29:19.658Z,17.10
2022-12-24T02:33:14.760Z,15.68
2022-12-24T02:37:07.015Z,15.65
2022-12-24T02:40:22.011Z,18.95
2022-12-24T02:43:35.856Z,16.65
2022-12-24T02:46:40.210Z,16.88
2022-12-24T02:49:47.652Z,17.27
2022-12-24T02:52:52.334Z,19.35
2022-12-24T02:56:13.336Z,18.02
2022-12-24T02:59:40.415Z,16.58
2022-12-24T03:03:12.632Z,17.38
2022-12-24T03:06:33.824Z,18.27
2022-12-24T03:10:06.646Z,18.77
2022-12-24T03:13:18.987Z,17.08
2022-12-24T03:16:26.980Z,18.75
2022-12-24T03:19:32.995Z,17.50
2022-12-24T03:22:38.113Z,17.13
2022-12-24T03:25:44.991Z,19.88
2022-12-24T03:28:50.177Z,18.58
2022-12-24T03:32:02.263Z,17.08
2022-12-24T03:35:08.711Z,18.27
2022-12-24T03:38:13.248Z,18.85
2022-12-24T03:41:17.506Z,17.05
2022-12-24T03:44:21.689Z,19.10
2022-12-24T03:47:26.195Z,17.35
2022-12-24T03:50:30.528Z,17.45
2022-12-24T03:53:34.759Z,17.83
2022-12-24T03:56:38.740Z,18.27
2022-12-24T03:59:43.192Z,17.95
2022-12-24T04:02:47.899Z,18.27
2022-12-24T04:06:11.275Z,17.52
2022-12-24T04:09:15.928Z,17.13
2022-12-24T04:12:20.313Z,16.50
2022-12-24T04:15:25.115Z,17.80
2022-12-24T04:18:29.929Z,18.85
2022-12-24T04:21:34.184Z,17.42
2022-12-24T04:24:38.476Z,17.77
2022-12-24T04:27:42.926Z,17.40
2022-12-24T04:30:47.289Z,16.92
2022-12-24T04:33:53.355Z,17.52
2022-12-24T04:36:58.429Z,17.80
2022-12-24T04:40:03.213Z,17.25
2022-12-24T04:43:07.707Z,17.33
2022-12-24T04:46:18.042Z,17.02
2022-12-24T04:49:22.774Z,16.38
2022-12-24T04:52:28.025Z,18.20
2022-12-24T04:55:32.368Z,16.67
2022-12-24T04:58:36.819Z,17.05
2022-12-24T05:01:41.419Z,15.75
2022-12-24T05:04:46.082Z,16.85
2022-12-24T05:07:50.534Z,16.25
2022-12-24T05:10:59.328Z,17.63
2022-12-24T05:14:04.006Z,15.98
2022-12-24T05:17:08.969Z,15.57
2022-12-24T05:20:13.266Z,14.70
2022-12-24T05:23:43.684Z,17.13
2022-12-24T05:26:57.170Z,16.00
2022-12-24T05:30:01.460Z,11.15
2022-12-24T05:33:06.136Z,15.32
2022-12-24T05:36:10.761Z,15.65
2022-12-24T05:39:17.477Z,16.02
2022-12-24T05:42:22.130Z,17.15
2022-12-24T05:45:26.664Z,16.17
2022-12-24T05:48:31.122Z,17.15
2022-12-24T05:51:35.771Z,15.70
2022-12-24T05:54:40.709Z,14.18
2022-12-24T05:57:45.733Z,17.33
2022-12-24T06:00:54.457Z,15.63
2022-12-24T06:03:58.929Z,15.88
2022-12-24T06:07:03.106Z,15.57
2022-12-24T06:10:08.913Z,15.73
2022-12-24T06:13:13.647Z,15.82
2022-12-24T06:16:20.461Z,15.30
2022-12-24T06:19:26.105Z,15.15
2022-12-24T06:22:30.888Z,15.77
2022-12-24T06:25:35.287Z,14.50
2022-12-24T06:28:40.124Z,15.07
2022-12-24T06:31:44.694Z,15.88
2022-12-24T06:34:49.329Z,16.48
2022-12-24T06:37:53.570Z,16.65
2022-12-24T06:40:57.825Z,15.45
2022-12-24T06:44:02.106Z,16.75
2022-12-24T06:47:06.961Z,14.65
2022-12-24T06:50:11.927Z,15.48
2022-12-24T06:53:16.318Z,14.27
2022-12-24T06:56:22.022Z,14.32
2022-12-24T06:59:26.570Z,15.23
2022-12-24T07:02:30.912Z,13.95
2022-12-24T07:05:35.274Z,14.13
2022-12-24T07:08:39.484Z,14.20
2022-12-24T07:11:43.701Z,13.00
2022-12-24T07:14:47.936Z,15.02
2022-12-24T07:17:52.842Z,15.13
2022-12-24T07:20:58.258Z,14.32
2022-12-24T07:24:02.778Z,14.63
2022-12-24T07:27:07.161Z,13.55
2022-12-24T07:30:12.148Z,14.63
2022-12-24T07:33:16.688Z,12.85
2022-12-24T07:36:22.135Z,13.07
2022-12-24T07:39:26.927Z,14.00
2022-12-24T07:42:31.283Z,12.73
2022-12-24T07:45:35.907Z,12.73
2022-12-24T07:48:40.642Z,13.25
2022-12-24T07:51:45.561Z,13.55
2022-12-24T07:54:49.734Z,13.30
2022-12-24T07:57:54.033Z,14.00
2022-12-24T08:01:00.095Z,13.00
2022-12-24T08:04:05.777Z,12.30
2022-12-24T08:07:10.817Z,11.90
2022-12-24T08:10:15.307Z,12.45
2022-12-24T08:13:20.234Z,14.60
2022-12-24T08:16:24.916Z,12.63
2022-12-24T08:19:29.611Z,12.00
2022-12-24T08:22:34.059Z,11.60
2022-12-24T08:25:42.288Z,12.60
2022-12-24T08:28:46.738Z,12.82
2022-12-24T08:31:51.172Z,12.25
2022-12-24T08:34:55.972Z,12.45
2022-12-24T08:38:00.356Z,12.13
2022-12-24T08:41:05.658Z,12.27
2022-12-24T08:44:10.434Z,12.32
2022-12-24T08:47:14.806Z,11.82
2022-12-24T08:50:19.051Z,11.63
2022-12-24T08:53:23.449Z,11.55
2022-12-24T08:56:27.976Z,11.82
2022-12-24T08:59:32.348Z,12.93
2022-12-24T09:02:37.051Z,12.35
2022-12-24T09:05:41.641Z,11.52
2022-12-24T09:08:50.624Z,12.05
2022-12-24T09:11:55.155Z,10.77
2022-12-24T09:15:03.399Z,13.02
2022-12-24T09:18:08.495Z,12.20
2022-12-24T09:21:15.605Z,11.30
2022-12-24T09:24:20.104Z,13.65
2022-12-24T09:27:24.459Z,12.45
2022-12-24T09:30:28.739Z,12.07
2022-12-24T09:33:36.931Z,11.55
2022-12-24T09:36:41.252Z,12.18
2022-12-24T09:39:45.628Z,11.57
2022-12-24T09:42:54.338Z,11.35
2022-12-24T09:46:22.827Z,11.75
2022-12-24T09:49:40.575Z,11.18
2022-12-24T09:52:47.517Z,13.05
2022-12-24T09:56:00.558Z,13.68
2022-12-24T09:59:13.486Z,11.73
2022-12-24T10:02:20.376Z,15.27
2022-12-24T10:05:44.012Z,13.88
2022-12-24T10:09:24.057Z,12.10
2022-12-24T10:12:47.588Z,12.20
2022-12-24T10:16:33.001Z,12.77
2022-12-24T10:19:56.673Z,11.75
2022-12-24T10:23:31.993Z,11.43
2022-12-24T10:26:55.364Z,10.57
2022-12-24T10:30:16.916Z,9.95
2022-12-24T10:33:49.926Z,9.77
2022-12-24T10:36:54.589Z,8.93
2022-12-24T10:40:00.873Z,9.55
2022-12-24T10:43:16.601Z,10.30
2022-12-24T10:46:38.941Z,11.25
2022-12-24T10:50:02.400Z,9.98
2022-12-24T10:53:48.756Z,9.77
2022-12-24T10:57:02.090Z,9.23
2022-12-24T11:00:19.046Z,10.27
2022-12-24T11:03:42.609Z,10.23
2022-12-24T11:06:57.547Z,9.73
2022-12-24T11:10:08.053Z,10.68
2022-12-24T11:13:39.724Z,10.55
2022-12-24T11:16:57.117Z,10.65
2022-12-24T11:20:04.084Z,10.05
2022-12-24T11:23:17.230Z,11.60
2022-12-24T11:26:31.709Z,11.25
2022-12-24T11:29:36.097Z,11.90
2022-12-24T11:32:48.499Z,11.98
2022-12-24T11:36:00.598Z,10.63
2022-12-24T11:39:05.499Z,12.27
2022-12-24T11:42:39.355Z,11.50
2022-12-24T11:45:58.028Z,12.38
2022-12-24T11:49:31.730Z,12.00
2022-12-24T11:52:36.323Z,12.68
2022-12-24T11:55:45.607Z,13.55
2022-12-24T11:58:57.436Z,12.75
2022-12-24T12:02:30.078Z,13.30
2022-12-24T12:05:37.928Z,12.30
2022-12-24T12:08:43.656Z,12.10
2022-12-24T12:11:57.694Z,12.63
2022-12-24T12:15:24.846Z,11.35
2022-12-24T12:18:40.589Z,11.77
2022-12-24T12:21:49.347Z,11.73
2022-12-24T12:24:56.222Z,12.27
2022-12-24T12:28:07.548Z,11.90
2022-12-24T12:31:26.613Z,11.95
2022-12-24T12:34:46.240Z,12.77
2022-12-24T12:38:23.128Z,12.35
2022-12-24T12:42:03.762Z,12.63
2022-12-24T12:45:34.195Z,12.60
2022-12-24T12:49:03.246Z,13.98
2022-12-24T12:52:42.158Z,13.98
2022-12-24T12:56:11.163Z,14.88
2022-12-24T12:59:33.677Z,13.63
2022-12-24T13:03:13.119Z,15.18
2022-12-24T13:06:59.871Z,15.80
2022-12-24T13:10:24.267Z,17.83
2022-12-24T13:13:51.588Z,19.90
2022-12-24T13:17:01.864Z,17.30
2022-12-24T13:20:36.869Z,15.15
2022-12-24T13:23:41.194Z,15.60
2022-12-24T13:27:32.919Z,20.15
2022-12-24T13:30:43.499Z,27.70
2022-12-24T13:33:51.524Z,21.42
2022-12-24T13:37:20.856Z,19.67
2022-12-24T13:40:27.335Z,19.48
2022-12-24T13:44:11.202Z,18.58
2022-12-24T13:47:25.424Z,20.15
2022-12-24T13:50:50.716Z,20.00
2022-12-24T13:54:00.301Z,20.10
2022-12-24T13:57:27.506Z,21.13
2022-12-24T14:01:00.660Z,20.30
2022-12-24T14:04:09.623Z,22.23
2022-12-24T14:07:20.506Z,23.65
2022-12-24T14:10:31.874Z,22.75
2022-12-24T14:13:39.518Z,21.00
2022-12-24T14:16:50.322Z,23.85
2022-12-24T14:20:02.606Z,21.50
2022-12-24T14:23:23.206Z,22.23
2022-12-24T14:26:35.702Z,20.77
2022-12-24T14:30:21.071Z,19.98
2022-12-24T14:33:31.949Z,21.80
2022-12-24T14:36:37.729Z,20.73
2022-12-24T14:39:48.742Z,20.77
2022-12-24T14:43:26.232Z,22.00
2022-12-24T14:47:01.871Z,20.85
2022-12-24T14:50:39.391Z,21.45
2022-12-24T14:54:31.592Z,21.42
2022-12-24T14:57:38.535Z,18.35
2022-12-24T15:00:44.286Z,22.13
2022-12-24T15:04:14.920Z,18.98
2022-12-24T15:07:20.399Z,19.27
2022-12-24T15:10:33.790Z,21.38
2022-12-24T15:13:46.541Z,15.93
2022-12-24T15:16:58.256Z,22.63
2022-12-24T15:20:07.737Z,24.52
2022-12-24T15:23:37.529Z,23.63
2022-12-24T15:26:45.545Z,24.55
2022-12-24T15:29:58.397Z,26.83
2022-12-24T15:33:05.356Z,29.35
2022-12-24T15:36:10.341Z,28.55
2022-12-24T15:39:18.599Z,25.60
2022-12-24T15:42:27.621Z,27.48
2022-12-24T15:45:44.008Z,25.42
2022-12-24T15:48:50.323Z,50.10
2022-12-24T15:52:02.937Z,27.30
2022-12-24T15:55:38.354Z,25.83
2022-12-24T15:58:45.712Z,34.90
2022-12-24T16:01:52.093Z,20.67
2022-12-24T16:05:29.700Z,22.52
2022-12-24T16:08:40.320Z,20.55
2022-12-24T16:11:45.274Z,21.88
2022-12-24T16:15:00.855Z,21.63
2022-12-24T16:18:06.209Z,23.10
2022-12-24T16:21:19.015Z,21.63
2022-12-24T16:24:28.456Z,24.13
2022-12-24T16:27:33.023Z,24.20
2022-12-24T16:30:37.245Z,21.20
2022-12-24T16:33:41.828Z,22.95
2022-12-24T16:36:46.863Z,16.50
2022-12-24T16:39:51.312Z,18.38
2022-12-24T16:43:17.609Z,14.50
2022-12-24T16:46:22.447Z,13.50
2022-12-24T16:49:27.871Z,14.77
2022-12-24T16:52:36.145Z,12.75
2022-12-24T16:55:40.262Z,11.13
2022-12-24T16:58:45.276Z,12.70
2022-12-24T17:01:51.208Z,16.17
2022-12-24T17:04:56.070Z,18.98
2022-12-24T17:08:01.919Z,20.00
2022-12-24T17:11:06.258Z,31.25
2022-12-24T17:14:19.656Z,34.00
2022-12-24T17:17:28.979Z,18.52
2022-12-24T17:20:33.812Z,16.05
2022-12-24T17:23:41.779Z,11.38
2022-12-24T17:26:46.348Z,13.25
2022-12-24T17:32:55.151Z,12.27
2022-12-24T17:35:59.352Z,10.00
2022-12-24T17:39:03.910Z,13.02
2022-12-24T17:42:08.271Z,11.10
2022-12-24T17:45:12.581Z,10.10
2022-12-24T17:48:16.855Z,11.77
2022-12-24T17:51:23.432Z,15.25
2022-12-24T17:54:27.791Z,17.77
2022-12-24T17:57:32.135Z,16.30
2022-12-24T18:00:36.842Z,26.17
2022-12-24T18:03:41.991Z,13.30
2022-12-24T18:06:49.528Z,13.98
2022-12-24T18:09:54.303Z,12.30
2022-12-24T18:12:58.584Z,17.88
2022-12-24T18:16:02.821Z,14.98
2022-12-24T18:19:11.648Z,20.25
2022-12-24T18:22:16.174Z,14.32
2022-12-24T18:25:20.672Z,25.10
2022-12-24T18:28:25.052Z,11.65
2022-12-24T18:31:30.639Z,11.15
2022-12-24T18:34:35.509Z,12.55
2022-12-24T18:37:39.964Z,11.82
2022-12-24T18:40:44.023Z,12.32
2022-12-24T18:43:48.663Z,10.43
2022-12-24T18:46:53.746Z,9.38
2022-12-24T18:49:58.391Z,10.02
2022-12-24T18:53:04.183Z,11.00
2022-12-24T18:56:16.137Z,12.02
2022-12-24T18:59:20.479Z,11.43
2022-12-24T19:02:25.219Z,9.15
2022-12-24T19:05:31.039Z,8.25
2022-12-24T19:12:00.504Z,6.20
2022-12-24T19:15:06.613Z,7.05
2022-12-24T19:18:10.955Z,6.45
2022-12-24T19:21:17.726Z,6.45
2022-12-24T19:24:22.731Z,5.43
2022-12-24T19:27:27.409Z,6.78
2022-12-24T19:30:31.990Z,10.07
2022-12-24T19:33:43.257Z,6.68
2022-12-24T19:36:48.231Z,7.45
2022-12-24T19:39:53.276Z,7.03
2022-12-24T19:42:58.076Z,8.07
2022-12-24T19:46:06.439Z,6.68
2022-12-24T19:49:12.438Z,8.45
2022-12-24T19:52:16.894Z,7.43
2022-12-24T19:55:21.340Z,7.53
2022-12-24T19:58:27.377Z,7.88
2022-12-24T20:01:35.251Z,7.60
2022-12-24T20:04:40.394Z,9.18
2022-12-24T20:07:45.045Z,13.27
2022-12-24T20:10:49.462Z,11.57
2022-12-24T20:13:58.550Z,11.10
2022-12-24T20:17:02.900Z,9.77
2022-12-24T20:20:08.463Z,9.20
2022-12-24T20:23:13.117Z,10.52
2022-12-24T20:26:20.404Z,11.35
2022-12-24T20:29:25.102Z,9.38
2022-12-24T20:32:29.723Z,9.70
2022-12-24T20:35:35.880Z,9.52
2022-12-24T20:38:40.406Z,10.30
2022-12-24T20:41:45.069Z,10.00
2022-12-24T20:44:49.602Z,10.32
2022-12-24T20:47:54.156Z,10.23
2022-12-24T20:50:59.201Z,10.05
2022-12-24T20:54:04.444Z,8.80
2022-12-24T20:57:08.615Z,9.35
2022-12-24T21:00:13.763Z,8.07
2022-12-24T21:03:18.773Z,9.73
2022-12-24T21:06:24.532Z,10.55
2022-12-24T21:09:30.443Z,12.32
2022-12-24T21:12:50.249Z,11.98
2022-12-24T21:15:54.900Z,21.98
2022-12-24T21:18:59.593Z,12.48
2022-12-24T21:22:04.026Z,13.23
2022-12-24T21:25:10.038Z,11.13
2022-12-24T21:28:17.578Z,10.90
2022-12-24T21:31:22.269Z,13.07
2022-12-24T21:34:27.057Z,13.13
2022-12-24T21:37:31.476Z,10.80
2022-12-24T21:40:38.897Z,10.15
2022-12-24T21:43:44.596Z,10.77
2022-12-24T21:46:49.571Z,11.25
2022-12-24T21:50:12.451Z,9.80
2022-12-24T21:53:36.150Z,11.30
2022-12-24T21:56:59.665Z,12.03
2022-12-24T22:00:26.676Z,11.13
2022-12-24T22:03:31.348Z,11.88
2022-12-24T22:06:54.681Z,11.57
2022-12-24T22:10:17.622Z,11.30
2022-12-24T22:13:23.119Z,11.00
2022-12-24T22:16:28.288Z,9.77
2022-12-24T22:19:32.996Z,11.32
2022-12-24T22:22:37.741Z,11.73
2022-12-24T22:25:43.901Z,11.23
2022-12-24T22:28:48.140Z,11.50
2022-12-24T22:31:52.762Z,11.80
2022-12-24T22:34:57.235Z,11.50
2022-12-24T22:38:01.753Z,12.45
2022-12-24T22:41:08.693Z,13.00
2022-12-24T22:44:13.180Z,11.07
2022-12-24T22:47:17.550Z,11.68
2022-12-24T22:50:22.388Z,11.73
2022-12-24T22:53:26.949Z,11.15
2022-12-24T22:56:35.518Z,12.48
2022-12-24T22:59:43.470Z,12.00
2022-12-24T23:02:48.122Z,11.38
2022-12-24T23:06:10.925Z,11.73
2022-12-24T23:09:16.019Z,12.10
2022-12-24T23:12:40.586Z,12.68
2022-12-24T23:15:44.964Z,12.50
2022-12-24T23:18:49.008Z,11.18
2022-12-24T23:21:53.356Z,13.27
2022-12-24T23:24:57.672Z,14.35
2022-12-24T23:28:02.142Z,13.13
2022-12-24T23:31:07.203Z,13.38
2022-12-24T23:34:11.890Z,13.57
2022-12-24T23:37:16.009Z,13.60
2022-12-24T23:40:20.080Z,13.30
2022-12-24T23:43:24.752Z,13.00
2022-12-24T23:46:30.230Z,12.40
2022-12-24T23:49:34.848Z,13.07
2022-12-24T23:52:38.908Z,13.93
2022-12-24T23:55:43.344Z,12.73
2022-12-24T23:58:48.373Z,12.75
